Maldives Meteorological Service

METAR

Station
VRMM
METAR VRMM 280200Z 26018KT 9999 FEW017 SCT120 OVC270 29/26 Q1008 TEMPO FEW018CB=
VRMH
METAR VRMH 280200Z 29012KT 9999 FEW017TCU BKN110 28/25 Q1007=
VRMK
METAR VRMK 280200Z 24009KT 9999 FEW018 FEW019CB BKN270 29/25 Q1009 CB W=
VRMT
METAR VRMT 280200Z 27009KT 9999 FEW018 FEW019CB BKN120 29/25 Q1009 CB NNW=
VRMG
METAR VRMG 280200Z 28009KT 9999 FEW017TCU BKN260 28/25 Q1010 NOSIG=
Last Updated : 2018-05-28 07:46:31

SPECI

Station
VRMM
VRMH
VRMK
VRMT
VRMG
Last Updated : 2018-05-28 07:46:31